Time;durP1;ratioP1;P1;durP2;ratioP2;P2;SDS_P1;SDS_P2;PMS_P1;PMS_P2;Temp;Humidity;BMP_temperature;BMP_pressure;BME280_temperature;BME280_humidity;BME280_pressure;Samples;Min_cycle;Max_cycle;Signal;HPM_P1;HPM_P2
2022/11/04 00:00:52;;;;;;;;;;;7.60;99.90;;;;;;4952105;28;20017;-76
2022/11/04 00:03:17;;;;;;;;;;;7.60;99.90;;;;;;4953088;28;20425;-76
2022/11/04 00:05:43;;;;;;;;;;;7.60;99.90;;;;;;4950493;28;19915;-76
2022/11/04 00:08:23;;;;;;;;;;;7.70;99.90;;;;;;4948916;28;19914;-76
2022/11/04 00:13:39;;;;;;;;;;;7.80;99.90;;;;;;4949332;28;20425;-77
2022/11/04 00:18:49;;;;;;;;;;;7.80;99.90;;;;;;4948860;28;19917;-76
2022/11/04 00:29:27;;;;;;;;;;;7.70;99.90;;;;;;4946354;28;19917;-76
2022/11/04 00:34:36;;;;;;;;;;;7.70;99.90;;;;;;4939048;28;19918;-76
2022/11/04 00:37:02;;;;;;;;;;;7.70;99.90;;;;;;4948435;28;19914;-77
2022/11/04 00:39:27;;;;;;;;;;;7.70;99.90;;;;;;4954938;28;19996;-76
2022/11/04 00:41:53;;;;;;;;;;;7.60;99.90;;;;;;4954001;28;19922;-77
2022/11/04 00:44:18;;;;;;;;;;;7.50;99.90;;;;;;4949891;28;19918;-77
2022/11/04 00:46:44;;;;;;;;;;;7.40;99.90;;;;;;4952190;28;20377;-76
2022/11/04 00:49:09;;;;;;;;;;;7.30;99.90;;;;;;4954599;28;19914;-77
2022/11/04 00:51:34;;;;;;;;;;;7.30;99.90;;;;;;4950028;28;20017;-76
2022/11/04 00:54:00;;;;;;;;;;;7.20;99.90;;;;;;4955085;28;19961;-76
2022/11/04 00:56:25;;;;;;;;;;;7.10;99.90;;;;;;4947370;28;19917;-76
2022/11/04 00:58:51;;;;;;;;;;;7.00;99.90;;;;;;4952292;28;20305;-77
2022/11/04 01:01:17;;;;;;;;;;;7.00;99.90;;;;;;4953086;28;19911;-76
2022/11/04 01:03:43;;;;;;;;;;;6.90;99.90;;;;;;4942223;28;21719;-76
2022/11/04 01:06:08;;;;;;;;;;;6.90;99.90;;;;;;4947970;28;19910;-76
2022/11/04 01:08:34;;;;;;;;;;;6.90;99.90;;;;;;4950775;28;19960;-76
2022/11/04 01:11:03;;;;;;;;;;;6.90;99.90;;;;;;4947578;28;19922;-77
2022/11/04 01:13:28;;;;;;;;;;;6.80;99.90;;;;;;4963418;28;20123;-77
2022/11/04 01:15:56;;;;;;;;;;;6.80;99.90;;;;;;4949932;28;20611;-76
2022/11/04 01:18:22;;;;;;;;;;;6.70;99.90;;;;;;4944023;28;19965;-76
2022/11/04 01:20:47;;;;;;;;;;;6.70;99.90;;;;;;4948028;28;19910;-77
2022/11/04 01:23:13;;;;;;;;;;;6.70;99.90;;;;;;4951443;28;19973;-77
2022/11/04 01:25:39;;;;;;;;;;;6.60;99.90;;;;;;4955372;28;20426;-77
2022/11/04 01:28:04;;;;;;;;;;;6.50;99.90;;;;;;4955206;28;19914;-77
2022/11/04 01:30:29;;;;;;;;;;;6.50;99.90;;;;;;4948928;28;19918;-77
2022/11/04 01:32:55;;;;;;;;;;;6.60;99.90;;;;;;4950991;28;19914;-77
2022/11/04 01:35:20;;;;;;;;;;;6.60;99.90;;;;;;4950174;28;19922;-77
2022/11/04 01:37:46;;;;;;;;;;;6.60;99.90;;;;;;4942441;28;20492;-77
2022/11/04 01:40:11;;;;;;;;;;;6.60;99.90;;;;;;4944164;28;19961;-77
2022/11/04 01:42:36;;;;;;;;;;;6.70;99.90;;;;;;4960015;28;20057;-76
2022/11/04 01:45:02;;;;;;;;;;;6.80;99.90;;;;;;4952453;28;20025;-77
2022/11/04 01:47:29;;;;;;;;;;;6.80;99.90;;;;;;4965552;28;19964;-76
2022/11/04 01:50:01;;;;;;;;;;;6.90;99.90;;;;;;4950726;28;19914;-77
2022/11/04 01:52:30;;;;;;;;;;;6.90;99.90;;;;;;4951954;28;19914;-77
2022/11/04 01:54:58;;;;;;;;;;;6.90;99.90;;;;;;4948029;28;19914;-77
2022/11/04 01:57:32;;;;;;;;;;;6.90;99.90;;;;;;4950840;28;19910;-77
2022/11/04 01:59:59;;;;;;;;;;;7.00;99.90;;;;;;4958776;28;19925;-77
2022/11/04 02:02:24;;;;;;;;;;;7.10;99.90;;;;;;4950490;28;20370;-77
2022/11/04 02:04:50;;;;;;;;;;;7.10;99.90;;;;;;4953299;28;20014;-78
2022/11/04 02:07:16;;;;;;;;;;;7.10;99.90;;;;;;4952289;28;19918;-77
2022/11/04 02:09:42;;;;;;;;;;;7.10;99.90;;;;;;4947889;28;19918;-77
2022/11/04 02:14:52;;;;;;;;;;;7.30;99.90;;;;;;4953078;28;19921;-78
2022/11/04 02:17:18;;;;;;;;;;;7.30;99.90;;;;;;4949608;28;20000;-77
2022/11/04 02:19:49;;;;;;;;;;;7.40;99.90;;;;;;4952204;28;20021;-77
2022/11/04 02:22:33;;;;;;;;;;;7.50;99.90;;;;;;4951674;28;20349;-78
2022/11/04 02:25:14;;;;;;;;;;;7.50;99.90;;;;;;4951605;28;19919;-77
2022/11/04 02:27:49;;;;;;;;;;;7.50;99.90;;;;;;4946884;28;20113;-78
2022/11/04 02:30:18;;;;;;;;;;;7.50;99.90;;;;;;4952466;28;19970;-77
2022/11/04 02:32:57;;;;;;;;;;;7.50;99.90;;;;;;4944555;28;19953;-77
2022/11/04 02:35:34;;;;;;;;;;;7.50;99.90;;;;;;4949466;28;19969;-77
2022/11/04 02:38:11;;;;;;;;;;;7.40;99.90;;;;;;4951605;28;19914;-77
2022/11/04 02:40:40;;;;;;;;;;;7.30;99.90;;;;;;4956078;28;19941;-77
2022/11/04 02:43:11;;;;;;;;;;;7.20;99.90;;;;;;4951756;28;19928;-77
2022/11/04 02:45:46;;;;;;;;;;;7.30;99.90;;;;;;4952380;28;20358;-78
2022/11/04 02:48:21;;;;;;;;;;;7.30;99.90;;;;;;4954319;28;19918;-75
2022/11/04 02:50:50;;;;;;;;;;;7.30;99.90;;;;;;4948950;28;19911;-78
2022/11/04 02:53:34;;;;;;;;;;;7.20;99.90;;;;;;4947151;28;19941;-78
2022/11/04 02:56:01;;;;;;;;;;;7.10;99.90;;;;;;4955159;28;19925;-78
2022/11/04 02:58:29;;;;;;;;;;;7.10;99.90;;;;;;4951577;28;19917;-79
2022/11/04 03:00:56;;;;;;;;;;;7.10;99.90;;;;;;4952815;28;19914;-76
2022/11/04 03:03:23;;;;;;;;;;;7.10;99.90;;;;;;4945728;28;20376;-76
2022/11/04 03:05:50;;;;;;;;;;;7.10;99.90;;;;;;4954135;28;20365;-78
2022/11/04 03:08:20;;;;;;;;;;;7.10;99.90;;;;;;4959648;28;20491;-78
2022/11/04 03:10:49;;;;;;;;;;;7.10;99.90;;;;;;4948944;28;19918;-78
2022/11/04 03:13:18;;;;;;;;;;;7.30;99.90;;;;;;4957614;28;19926;-78
2022/11/04 03:16:09;;;;;;;;;;;7.40;99.90;;;;;;4950476;28;20013;-78
2022/11/04 03:18:37;;;;;;;;;;;7.50;99.90;;;;;;4945091;28;19910;-76
2022/11/04 03:21:05;;;;;;;;;;;7.50;99.90;;;;;;4953349;28;19914;-78
2022/11/04 03:23:31;;;;;;;;;;;7.60;99.90;;;;;;4948927;28;19921;-78
2022/11/04 03:26:00;;;;;;;;;;;7.70;99.90;;;;;;4960632;28;19914;-78
2022/11/04 03:28:32;;;;;;;;;;;7.70;99.90;;;;;;4950979;28;19925;-78
2022/11/04 03:31:00;;;;;;;;;;;7.70;99.90;;;;;;4952550;28;19929;-78
2022/11/04 03:33:31;;;;;;;;;;;7.70;99.90;;;;;;4950709;28;19918;-78
2022/11/04 03:35:57;;;;;;;;;;;7.70;99.90;;;;;;4952447;28;20360;-77
2022/11/04 03:38:22;;;;;;;;;;;7.80;99.90;;;;;;4950012;28;19919;-78
2022/11/04 03:40:48;;;;;;;;;;;7.90;99.90;;;;;;4947994;28;20001;-79
2022/11/04 03:43:17;;;;;;;;;;;8.00;99.90;;;;;;4958263;28;19919;-78
2022/11/04 03:45:42;;;;;;;;;;;8.10;99.90;;;;;;4951275;28;19914;-78
2022/11/04 03:48:08;;;;;;;;;;;8.10;99.90;;;;;;4958775;28;20586;-77
2022/11/04 03:50:55;;;;;;;;;;;8.10;99.90;;;;;;4950544;28;19936;-78
2022/11/04 03:53:24;;;;;;;;;;;8.10;99.90;;;;;;4952090;28;20028;-78
2022/11/04 03:56:01;;;;;;;;;;;8.20;99.90;;;;;;4949384;28;20001;-77
2022/11/04 03:58:36;;;;;;;;;;;8.20;99.90;;;;;;4940139;28;19911;-78
2022/11/04 04:01:23;;;;;;;;;;;8.20;99.90;;;;;;4950304;28;19921;-78
2022/11/04 04:03:53;;;;;;;;;;;8.30;99.90;;;;;;4944279;28;19969;-78
2022/11/04 04:06:22;;;;;;;;;;;8.30;99.90;;;;;;4948365;28;20395;-78
2022/11/04 04:09:01;;;;;;;;;;;8.40;99.90;;;;;;4940114;28;19917;-78
2022/11/04 04:11:27;;;;;;;;;;;8.40;99.90;;;;;;4944744;28;19917;-76
2022/11/04 04:13:58;;;;;;;;;;;8.30;99.90;;;;;;4943252;28;19911;-78
2022/11/04 04:16:28;;;;;;;;;;;8.40;99.90;;;;;;4942660;28;19911;-76
2022/11/04 04:18:58;;;;;;;;;;;8.40;99.90;;;;;;4946350;28;19911;-77
2022/11/04 04:21:27;;;;;;;;;;;8.40;99.90;;;;;;4943255;28;20425;-77
2022/11/04 04:29:24;;;;;;;;;;;8.50;99.90;;;;;;4946861;28;20429;-77
2022/11/04 04:31:51;;;;;;;;;;;8.40;99.90;;;;;;4944604;28;20008;-77
2022/11/04 04:34:24;;;;;;;;;;;8.40;99.90;;;;;;4943652;28;19918;-76
2022/11/04 04:36:59;;;;;;;;;;;8.50;99.90;;;;;;4941522;28;19986;-77
2022/11/04 04:44:58;;;;;;;;;;;8.60;99.90;;;;;;4945847;28;20333;-77
2022/11/04 04:47:25;;;;;;;;;;;8.60;99.90;;;;;;4943625;28;19911;-77
2022/11/04 04:49:55;;;;;;;;;;;8.70;99.90;;;;;;4943497;28;19911;-77
2022/11/04 04:52:29;;;;;;;;;;;8.60;99.90;;;;;;4953782;28;19920;-77
2022/11/04 04:54:54;;;;;;;;;;;8.50;99.90;;;;;;4956856;28;20462;-77
2022/11/04 04:57:20;;;;;;;;;;;8.50;99.90;;;;;;4946197;28;19914;-77
2022/11/04 04:59:45;;;;;;;;;;;8.50;99.90;;;;;;4948734;28;19925;-77
2022/11/04 05:02:10;;;;;;;;;;;8.50;99.90;;;;;;4955451;28;20025;-76
2022/11/04 05:04:36;;;;;;;;;;;8.60;99.90;;;;;;4948782;28;19911;-76
2022/11/04 05:07:01;;;;;;;;;;;8.50;99.90;;;;;;4943029;28;19911;-76
2022/11/04 05:09:27;;;;;;;;;;;8.60;99.90;;;;;;4951265;28;20011;-78
2022/11/04 05:11:52;;;;;;;;;;;8.60;99.90;;;;;;4946807;28;20380;-77
2022/11/04 05:14:18;;;;;;;;;;;8.60;99.90;;;;;;4952358;28;20381;-77
2022/11/04 05:16:43;;;;;;;;;;;8.80;99.90;;;;;;4950678;28;19910;-77
2022/11/04 05:19:09;;;;;;;;;;;8.80;99.90;;;;;;4951094;28;19910;-77
2022/11/04 05:21:34;;;;;;;;;;;8.90;99.90;;;;;;4954951;28;20001;-77
2022/11/04 05:24:00;;;;;;;;;;;8.80;99.90;;;;;;4947689;28;19913;-77
2022/11/04 05:26:25;;;;;;;;;;;8.90;99.90;;;;;;4952005;28;20352;-77
2022/11/04 05:28:50;;;;;;;;;;;8.80;99.90;;;;;;4949181;28;20017;-77
2022/11/04 05:31:16;;;;;;;;;;;8.90;99.90;;;;;;4944088;28;19919;-78
2022/11/04 05:33:41;;;;;;;;;;;8.90;99.90;;;;;;4948334;28;19910;-78
2022/11/04 05:36:08;;;;;;;;;;;8.90;99.90;;;;;;4950068;28;20064;-77
2022/11/04 05:38:34;;;;;;;;;;;9.00;99.90;;;;;;4957238;28;19930;-78
2022/11/04 05:40:59;;;;;;;;;;;9.00;99.90;;;;;;4955971;28;19915;-77
2022/11/04 05:43:25;;;;;;;;;;;9.10;99.90;;;;;;4954552;28;20340;-78
2022/11/04 05:45:50;;;;;;;;;;;9.10;99.90;;;;;;4946108;28;19910;-77
2022/11/04 05:48:16;;;;;;;;;;;9.00;99.90;;;;;;4943126;28;19914;-78
2022/11/04 05:50:41;;;;;;;;;;;8.90;99.90;;;;;;4948131;28;19911;-77
2022/11/04 05:53:06;;;;;;;;;;;8.90;99.90;;;;;;4951013;28;19910;-78
2022/11/04 05:55:32;;;;;;;;;;;9.00;99.90;;;;;;4944443;28;19969;-77
2022/11/04 05:57:58;;;;;;;;;;;9.10;99.90;;;;;;4953908;28;20420;-77
2022/11/04 06:00:24;;;;;;;;;;;9.00;99.90;;;;;;4943519;28;19914;-77
2022/11/04 06:02:49;;;;;;;;;;;8.90;99.90;;;;;;4955957;28;20008;-77
2022/11/04 06:05:15;;;;;;;;;;;9.00;99.90;;;;;;4952909;28;20595;-77
2022/11/04 06:07:40;;;;;;;;;;;9.00;99.90;;;;;;4950836;28;19965;-77
2022/11/04 06:10:06;;;;;;;;;;;9.00;99.90;;;;;;4943741;29;19937;-78
2022/11/04 06:12:31;;;;;;;;;;;9.00;99.90;;;;;;4933089;29;20393;-77
2022/11/04 06:14:56;;;;;;;;;;;9.00;99.90;;;;;;4936842;29;20014;-77
2022/11/04 06:17:22;;;;;;;;;;;8.90;99.90;;;;;;4936351;28;19910;-77
2022/11/04 06:19:47;;;;;;;;;;;8.90;99.90;;;;;;4945104;28;19910;-77
2022/11/04 06:22:14;;;;;;;;;;;8.90;99.90;;;;;;4943235;28;19918;-77
2022/11/04 06:24:39;;;;;;;;;;;9.00;99.90;;;;;;4943545;28;20387;-77
2022/11/04 06:27:05;;;;;;;;;;;9.10;99.90;;;;;;4943483;28;19956;-77
2022/11/04 06:29:31;;;;;;;;;;;9.30;99.90;;;;;;4943902;28;19993;-77
2022/11/04 06:31:56;;;;;;;;;;;9.30;99.90;;;;;;4946279;28;20393;-77
2022/11/04 06:34:22;;;;;;;;;;;9.50;99.90;;;;;;4937818;28;19911;-77
2022/11/04 06:36:47;;;;;;;;;;;9.60;99.90;;;;;;4942828;28;19910;-77
2022/11/04 06:39:13;;;;;;;;;;;9.70;99.90;;;;;;4949938;28;19911;-77
2022/11/04 06:41:38;;;;;;;;;;;9.70;99.90;;;;;;4950633;28;19949;-77
2022/11/04 06:44:04;;;;;;;;;;;9.70;99.90;;;;;;4936894;28;20025;-77
2022/11/04 06:46:32;;;;;;;;;;;9.70;99.90;;;;;;4950823;28;19910;-78
2022/11/04 06:48:57;;;;;;;;;;;9.80;99.90;;;;;;4939991;28;19929;-77
2022/11/04 06:51:23;;;;;;;;;;;9.80;99.90;;;;;;4948889;28;19918;-77
2022/11/04 06:53:48;;;;;;;;;;;9.90;99.90;;;;;;4947092;28;20424;-77
2022/11/04 06:56:14;;;;;;;;;;;9.90;99.90;;;;;;4946252;28;19942;-76
2022/11/04 06:58:39;;;;;;;;;;;10.00;99.90;;;;;;4944911;28;19914;-77
2022/11/04 07:01:05;;;;;;;;;;;10.00;99.90;;;;;;4950112;28;20441;-77
2022/11/04 07:03:30;;;;;;;;;;;10.00;99.90;;;;;;4947772;28;20510;-77
2022/11/04 07:06:06;;;;;;;;;;;10.10;99.90;;;;;;4952878;28;19914;-77
2022/11/04 07:08:31;;;;;;;;;;;10.20;99.90;;;;;;4948273;28;20298;-77
2022/11/04 07:10:57;;;;;;;;;;;10.10;99.90;;;;;;4950653;28;19937;-77
2022/11/04 07:13:28;;;;;;;;;;;10.10;99.90;;;;;;4944083;28;20361;-77
2022/11/04 07:15:54;;;;;;;;;;;10.10;99.90;;;;;;4944695;28;19933;-77
2022/11/04 07:18:19;;;;;;;;;;;10.20;99.90;;;;;;4945284;28;20385;-77
2022/11/04 07:20:45;;;;;;;;;;;10.30;99.90;;;;;;4946075;28;20005;-77
2022/11/04 07:23:11;;;;;;;;;;;10.30;99.90;;;;;;4940790;28;19922;-78
2022/11/04 07:25:36;;;;;;;;;;;10.30;99.90;;;;;;4943148;28;19917;-77
2022/11/04 07:28:01;;;;;;;;;;;10.40;99.90;;;;;;4941859;28;19965;-77
2022/11/04 07:30:27;;;;;;;;;;;10.40;99.90;;;;;;4944325;28;20079;-78
2022/11/04 07:32:52;;;;;;;;;;;10.40;99.90;;;;;;4947051;28;19918;-78
2022/11/04 07:35:18;;;;;;;;;;;10.40;99.90;;;;;;4948433;28;19910;-78
2022/11/04 07:37:43;;;;;;;;;;;10.40;99.90;;;;;;4943508;28;19910;-78
2022/11/04 07:40:20;;;;;;;;;;;10.50;99.90;;;;;;4946128;28;20289;-79
2022/11/04 07:42:46;;;;;;;;;;;10.50;99.90;;;;;;4944554;28;19929;-78
2022/11/04 07:45:12;;;;;;;;;;;10.70;99.90;;;;;;4946091;28;19915;-79
2022/11/04 07:47:39;;;;;;;;;;;10.80;99.90;;;;;;4943023;28;19969;-79
2022/11/04 07:50:05;;;;;;;;;;;10.80;99.90;;;;;;4948463;28;20392;-79
2022/11/04 07:52:30;;;;;;;;;;;10.90;99.90;;;;;;4942402;28;19919;-79
2022/11/04 07:54:56;;;;;;;;;;;10.80;99.90;;;;;;4950751;28;19906;-79
2022/11/04 07:57:21;;;;;;;;;;;10.90;99.90;;;;;;4941885;29;19906;-78
2022/11/04 07:59:47;;;;;;;;;;;11.10;99.90;;;;;;4949682;29;20000;-79
2022/11/04 08:02:12;;;;;;;;;;;11.10;99.90;;;;;;4943016;28;20005;-80
2022/11/04 08:04:44;;;;;;;;;;;11.10;99.90;;;;;;4946052;28;19949;-80
2022/11/04 08:07:09;;;;;;;;;;;11.20;99.90;;;;;;4939499;29;19917;-79
2022/11/04 08:09:38;;;;;;;;;;;11.30;99.90;;;;;;4943650;28;19910;-79
2022/11/04 08:12:04;;;;;;;;;;;11.40;99.90;;;;;;4946733;29;20332;-78
2022/11/04 08:14:29;;;;;;;;;;;11.30;99.90;;;;;;4948307;28;20051;-79
2022/11/04 08:16:55;;;;;;;;;;;11.30;99.90;;;;;;4943296;28;19915;-79
2022/11/04 08:19:20;;;;;;;;;;;11.20;99.90;;;;;;4940723;28;20289;-79
2022/11/04 08:21:46;;;;;;;;;;;11.20;99.90;;;;;;4956328;28;19918;-79
2022/11/04 08:24:11;;;;;;;;;;;11.50;99.90;;;;;;4953805;28;20381;-79
2022/11/04 08:26:37;;;;;;;;;;;11.60;99.90;;;;;;4955425;28;19965;-79
2022/11/04 08:29:06;;;;;;;;;;;11.50;99.90;;;;;;4951105;28;20522;-78
2022/11/04 08:31:32;;;;;;;;;;;11.40;99.90;;;;;;4935194;28;19918;-78
2022/11/04 08:33:58;;;;;;;;;;;11.30;99.90;;;;;;4935090;29;19910;-79
2022/11/04 08:36:25;;;;;;;;;;;11.40;99.90;;;;;;4942351;29;19964;-79
2022/11/04 08:38:51;;;;;;;;;;;11.30;99.90;;;;;;4955145;28;19964;-79
2022/11/04 08:41:19;;;;;;;;;;;11.30;99.90;;;;;;4952742;29;20384;-78
2022/11/04 08:43:45;;;;;;;;;;;11.30;99.90;;;;;;4938453;28;19911;-79
2022/11/04 08:46:11;;;;;;;;;;;11.30;99.90;;;;;;4944085;28;19914;-80
2022/11/04 08:48:37;;;;;;;;;;;11.20;99.90;;;;;;4949540;28;19917;-80
2022/11/04 08:51:04;;;;;;;;;;;11.20;99.90;;;;;;4957399;28;20332;-79
2022/11/04 08:53:29;;;;;;;;;;;11.40;99.90;;;;;;4945097;28;19922;-79
2022/11/04 08:55:54;;;;;;;;;;;11.40;99.90;;;;;;4951551;28;20432;-79
2022/11/04 08:58:20;;;;;;;;;;;11.50;99.90;;;;;;4946085;28;19911;-80
2022/11/04 09:00:46;;;;;;;;;;;11.50;99.90;;;;;;4950270;28;20365;-79
2022/11/04 09:03:11;;;;;;;;;;;11.50;99.90;;;;;;4953858;28;19922;-80
2022/11/04 09:05:43;;;;;;;;;;;11.50;99.90;;;;;;4957899;28;20368;-77
2022/11/04 09:08:13;;;;;;;;;;;11.50;99.90;;;;;;4948522;28;19915;-79
2022/11/04 09:10:45;;;;;;;;;;;11.60;99.90;;;;;;4953213;28;19946;-82
2022/11/04 09:13:11;;;;;;;;;;;11.50;99.90;;;;;;4952752;28;19910;-77
2022/11/04 09:15:37;;;;;;;;;;;11.40;99.90;;;;;;4949000;28;20396;-80
2022/11/04 09:18:03;;;;;;;;;;;11.50;99.90;;;;;;4949300;28;19910;-78
2022/11/04 09:20:28;;;;;;;;;;;11.50;99.90;;;;;;4945946;28;20332;-81
2022/11/04 09:22:54;;;;;;;;;;;11.50;99.90;;;;;;4948519;28;20422;-79
2022/11/04 09:25:20;;;;;;;;;;;11.60;99.90;;;;;;4947630;28;20045;-78
2022/11/04 09:27:45;;;;;;;;;;;11.50;99.90;;;;;;4949021;28;20406;-81
2022/11/04 09:30:11;;;;;;;;;;;11.40;99.90;;;;;;4946818;28;20341;-79
2022/11/04 09:32:36;;;;;;;;;;;11.40;99.90;;;;;;4958542;28;20045;-76
2022/11/04 09:35:02;;;;;;;;;;;11.50;99.90;;;;;;4933629;29;19907;-85
2022/11/04 09:37:27;;;;;;;;;;;11.60;99.90;;;;;;4940429;28;19974;-79
2022/11/04 09:39:53;;;;;;;;;;;11.70;99.90;;;;;;4940969;29;19927;-81
2022/11/04 09:42:35;;;;;;;;;;;11.90;99.90;;;;;;4942428;29;19910;-79
2022/11/04 09:45:08;;;;;;;;;;;11.90;99.90;;;;;;4945098;29;20043;-81
2022/11/04 09:47:35;;;;;;;;;;;11.80;99.90;;;;;;4941961;29;19915;-81
2022/11/04 09:50:04;;;;;;;;;;;11.80;99.90;;;;;;4938506;29;19915;-81
2022/11/04 09:52:31;;;;;;;;;;;11.60;99.90;;;;;;4933861;29;19910;-79
2022/11/04 09:55:05;;;;;;;;;;;11.80;99.90;;;;;;4938847;28;19907;-80
2022/11/04 09:57:31;;;;;;;;;;;11.90;99.90;;;;;;4934548;29;20373;-78
2022/11/04 09:59:57;;;;;;;;;;;11.70;99.90;;;;;;4952387;28;19925;-80
2022/11/04 10:02:37;;;;;;;;;;;11.70;99.90;;;;;;4961566;28;20271;-79
2022/11/04 10:05:19;;;;;;;;;;;11.70;99.90;;;;;;4935153;28;20278;-79
2022/11/04 10:07:45;;;;;;;;;;;11.80;99.90;;;;;;4943763;28;20056;-77
2022/11/04 10:10:22;;;;;;;;;;;11.90;99.90;;;;;;4964580;28;20000;-78
2022/11/04 10:13:04;;;;;;;;;;;11.90;99.90;;;;;;4960227;28;19917;-78
2022/11/04 10:15:29;;;;;;;;;;;11.80;99.90;;;;;;4941977;28;19958;-77
2022/11/04 10:18:04;;;;;;;;;;;11.80;99.90;;;;;;4950422;29;20521;-77
2022/11/04 10:20:45;;;;;;;;;;;11.70;99.90;;;;;;4954176;28;19910;-79
2022/11/04 10:23:29;;;;;;;;;;;11.80;99.90;;;;;;4955511;28;19914;-78
2022/11/04 10:26:11;;;;;;;;;;;11.70;99.90;;;;;;4960990;28;19946;-80
2022/11/04 10:28:41;;;;;;;;;;;11.80;99.90;;;;;;4940610;29;19923;-82
2022/11/04 10:31:11;;;;;;;;;;;11.80;99.90;;;;;;4944060;28;19934;-80
2022/11/04 10:33:39;;;;;;;;;;;11.80;99.90;;;;;;4956834;28;19910;-79
2022/11/04 10:36:06;;;;;;;;;;;11.80;99.90;;;;;;4942137;28;20021;-80
2022/11/04 10:38:36;;;;;;;;;;;11.80;99.90;;;;;;4947174;28;19926;-80
2022/11/04 10:41:11;;;;;;;;;;;11.70;99.90;;;;;;4944195;28;19906;-80
2022/11/04 10:43:37;;;;;;;;;;;11.80;99.90;;;;;;4934875;29;19922;-81
2022/11/04 10:46:03;;;;;;;;;;;11.90;99.90;;;;;;4950283;29;19957;-80
2022/11/04 10:48:58;;;;;;;;;;;11.90;99.90;;;;;;4947232;28;20474;-81
2022/11/04 10:51:23;;;;;;;;;;;11.70;99.90;;;;;;4937002;29;19918;-81
2022/11/04 10:53:59;;;;;;;;;;;11.70;99.90;;;;;;4947145;28;19911;-81
2022/11/04 10:56:37;;;;;;;;;;;11.60;99.90;;;;;;4950849;28;20357;-81
2022/11/04 10:59:22;;;;;;;;;;;11.70;99.90;;;;;;4947184;29;20361;-81
2022/11/04 11:02:21;;;;;;;;;;;11.70;99.90;;;;;;4948101;28;19966;-80
2022/11/04 11:04:48;;;;;;;;;;;11.50;99.90;;;;;;4938123;29;20329;-81
2022/11/04 11:07:18;;;;;;;;;;;11.50;99.90;;;;;;4938720;29;20361;-78
2022/11/04 11:09:52;;;;;;;;;;;11.60;99.90;;;;;;4944278;28;19926;-79
2022/11/04 11:12:22;;;;;;;;;;;11.60;99.90;;;;;;4948592;28;19925;-80
2022/11/04 11:14:48;;;;;;;;;;;11.70;99.90;;;;;;4939213;29;19906;-80
2022/11/04 11:17:13;;;;;;;;;;;11.80;99.90;;;;;;4950813;29;19990;-80
2022/11/04 11:19:56;;;;;;;;;;;11.80;99.90;;;;;;4949005;29;19921;-79
2022/11/04 11:22:35;;;;;;;;;;;11.90;99.90;;;;;;4947030;28;19968;-74
2022/11/04 11:25:19;;;;;;;;;;;11.90;99.90;;;;;;4948213;29;19918;-78
2022/11/04 11:27:46;;;;;;;;;;;12.00;99.90;;;;;;4946816;28;19910;-79
2022/11/04 11:30:19;;;;;;;;;;;12.00;99.90;;;;;;4943676;28;19915;-84
2022/11/04 11:32:45;;;;;;;;;;;11.90;99.90;;;;;;4943883;29;19914;-85
2022/11/04 11:35:15;;;;;;;;;;;11.80;99.90;;;;;;4950156;29;19906;-84
2022/11/04 11:37:43;;;;;;;;;;;11.80;99.90;;;;;;4949768;28;19910;-84
2022/11/04 11:40:23;;;;;;;;;;;11.80;99.90;;;;;;4948293;29;19906;-84
2022/11/04 11:42:48;;;;;;;;;;;11.70;99.90;;;;;;4949504;29;19910;-85
2022/11/04 11:45:15;;;;;;;;;;;11.70;99.90;;;;;;4949689;29;19907;-85
2022/11/04 11:47:42;;;;;;;;;;;11.70;99.90;;;;;;4949747;29;20005;-85
2022/11/04 11:50:14;;;;;;;;;;;11.60;99.90;;;;;;4951566;28;20023;-85
2022/11/04 11:52:40;;;;;;;;;;;11.50;99.90;;;;;;4956307;28;20306;-84
2022/11/04 11:55:17;;;;;;;;;;;11.40;99.90;;;;;;4956130;28;20009;-84
2022/11/04 11:57:50;;;;;;;;;;;11.40;99.90;;;;;;4955762;29;19906;-85
2022/11/04 12:00:17;;;;;;;;;;;11.40;99.90;;;;;;4956035;28;19910;-84
2022/11/04 12:02:52;;;;;;;;;;;11.50;99.90;;;;;;4955850;28;19921;-84
2022/11/04 12:05:21;;;;;;;;;;;11.50;99.90;;;;;;4955587;29;19906;-84
2022/11/04 12:07:58;;;;;;;;;;;11.50;99.90;;;;;;4955859;29;19910;-84
2022/11/04 12:10:47;;;;;;;;;;;11.60;99.90;;;;;;4955559;29;20403;-84
2022/11/04 12:13:22;;;;;;;;;;;11.50;99.90;;;;;;4955989;28;19913;-84
2022/11/04 12:15:59;;;;;;;;;;;11.50;99.90;;;;;;4955973;29;19906;-83
2022/11/04 12:18:48;;;;;;;;;;;11.40;99.90;;;;;;4955999;29;19953;-84
2022/11/04 12:21:20;;;;;;;;;;;11.50;99.90;;;;;;4955882;28;20006;-83
2022/11/04 12:23:53;;;;;;;;;;;11.50;99.90;;;;;;4955693;28;20321;-84
2022/11/04 12:26:26;;;;;;;;;;;11.40;99.90;;;;;;4955501;29;19910;-84
2022/11/04 12:29:05;;;;;;;;;;;11.50;99.90;;;;;;4943235;28;20000;-83
2022/11/04 12:31:41;;;;;;;;;;;11.60;99.90;;;;;;4944062;29;20018;-84
2022/11/04 12:34:11;;;;;;;;;;;11.60;99.90;;;;;;4955460;29;19918;-84
2022/11/04 12:36:48;;;;;;;;;;;11.50;99.90;;;;;;4955364;29;19914;-84
2022/11/04 12:39:14;;;;;;;;;;;11.60;99.90;;;;;;4958027;28;19945;-84
2022/11/04 12:41:44;;;;;;;;;;;11.60;99.90;;;;;;4945420;29;20206;-84
2022/11/04 12:44:26;;;;;;;;;;;11.60;99.90;;;;;;4936301;29;19913;-84
2022/11/04 12:47:00;;;;;;;;;;;11.50;99.90;;;;;;4936254;29;19907;-84
2022/11/04 12:49:45;;;;;;;;;;;11.50;99.90;;;;;;4936103;29;19961;-83
2022/11/04 12:52:29;;;;;;;;;;;11.60;99.90;;;;;;4936713;29;20001;-83
2022/11/04 12:55:13;;;;;;;;;;;11.60;99.90;;;;;;4936520;29;19913;-84
2022/11/04 12:57:47;;;;;;;;;;;11.60;99.90;;;;;;4935961;29;19950;-84
2022/11/04 13:00:13;;;;;;;;;;;11.50;99.90;;;;;;4936645;29;19917;-83
2022/11/04 13:02:39;;;;;;;;;;;11.50;99.90;;;;;;4933376;29;19914;-83
2022/11/04 13:05:17;;;;;;;;;;;11.50;99.90;;;;;;4933384;29;19911;-83
2022/11/04 13:07:46;;;;;;;;;;;11.50;99.90;;;;;;4933100;29;19917;-83
2022/11/04 13:10:21;;;;;;;;;;;11.40;99.90;;;;;;4933019;29;20297;-83
2022/11/04 13:12:49;;;;;;;;;;;11.40;99.90;;;;;;4932940;29;19907;-83
2022/11/04 13:15:19;;;;;;;;;;;11.20;99.90;;;;;;4933359;29;20534;-84
2022/11/04 13:17:47;;;;;;;;;;;11.30;99.90;;;;;;4933201;29;20247;-84
2022/11/04 13:20:24;;;;;;;;;;;11.30;99.90;;;;;;4941577;29;20357;-84
2022/11/04 13:22:51;;;;;;;;;;;11.30;99.90;;;;;;4952118;28;19933;-84
2022/11/04 13:25:40;;;;;;;;;;;11.30;99.90;;;;;;4951848;29;20369;-84
2022/11/04 13:28:09;;;;;;;;;;;11.20;99.90;;;;;;4951233;28;19911;-84
2022/11/04 13:30:38;;;;;;;;;;;11.10;99.90;;;;;;4937639;29;19918;-83
2022/11/04 13:33:12;;;;;;;;;;;11.20;99.90;;;;;;4932806;29;19914;-83
2022/11/04 13:35:46;;;;;;;;;;;11.20;99.90;;;;;;4932413;29;19907;-84
2022/11/04 13:38:14;;;;;;;;;;;11.30;99.90;;;;;;4932874;29;19914;-83
2022/11/04 13:40:42;;;;;;;;;;;11.30;99.90;;;;;;4932276;29;20380;-84
2022/11/04 13:46:00;;;;;;;;;;;11.30;99.90;;;;;;4932473;29;19914;-84
2022/11/04 13:48:27;;;;;;;;;;;11.20;99.90;;;;;;4932100;29;19915;-84
2022/11/04 13:50:58;;;;;;;;;;;11.20;99.90;;;;;;4932612;29;19997;-84
2022/11/04 13:53:39;;;;;;;;;;;11.20;99.90;;;;;;4932111;29;20093;-83
2022/11/04 13:56:05;;;;;;;;;;;11.20;99.90;;;;;;4942323;29;19917;-84
2022/11/04 13:58:32;;;;;;;;;;;11.20;99.90;;;;;;4950434;28;19949;-84
2022/11/04 14:01:11;;;;;;;;;;;11.20;99.90;;;;;;4942402;28;19977;-80
2022/11/04 14:03:39;;;;;;;;;;;11.20;99.90;;;;;;4946719;28;19922;-82
2022/11/04 14:06:06;;;;;;;;;;;11.20;99.90;;;;;;4951187;28;19918;-82
2022/11/04 14:08:33;;;;;;;;;;;11.20;99.90;;;;;;4939714;28;19910;-82
2022/11/04 14:11:00;;;;;;;;;;;11.20;99.90;;;;;;4933755;29;19993;-82
2022/11/04 14:13:29;;;;;;;;;;;11.10;99.90;;;;;;4948373;28;20021;-81
2022/11/04 14:15:58;;;;;;;;;;;11.20;99.90;;;;;;4942042;28;21242;-81
2022/11/04 14:18:26;;;;;;;;;;;11.30;99.90;;;;;;4949424;28;20005;-81
2022/11/04 14:21:06;;;;;;;;;;;11.40;99.90;;;;;;4946034;29;19907;-82
2022/11/04 14:23:33;;;;;;;;;;;11.40;99.90;;;;;;4951479;28;19917;-82
2022/11/04 14:26:00;;;;;;;;;;;11.50;99.90;;;;;;4952618;28;19941;-83
2022/11/04 14:28:27;;;;;;;;;;;11.60;99.90;;;;;;4948776;28;19918;-83
2022/11/04 14:30:52;;;;;;;;;;;11.90;99.90;;;;;;4947701;28;19922;-84
2022/11/04 14:33:21;;;;;;;;;;;12.00;99.90;;;;;;4951258;28;19910;-83
2022/11/04 14:35:47;;;;;;;;;;;12.00;99.90;;;;;;4955640;28;20309;-83
2022/11/04 14:38:32;;;;;;;;;;;11.80;99.90;;;;;;4934954;29;19965;-81
2022/11/04 14:41:11;;;;;;;;;;;11.90;99.90;;;;;;4945866;29;19942;-83
2022/11/04 14:43:38;;;;;;;;;;;11.90;99.90;;;;;;4937362;28;19915;-82
2022/11/04 14:46:04;;;;;;;;;;;11.80;99.90;;;;;;4949230;29;19933;-83
2022/11/04 14:48:30;;;;;;;;;;;11.70;99.90;;;;;;4934119;28;19907;-83
2022/11/04 14:50:56;;;;;;;;;;;11.50;99.90;;;;;;4944475;28;19993;-82
2022/11/04 14:53:24;;;;;;;;;;;11.50;99.90;;;;;;4943121;28;20026;-83
2022/11/04 14:56:01;;;;;;;;;;;11.30;99.90;;;;;;4954488;28;19910;-83
2022/11/04 14:58:27;;;;;;;;;;;11.30;99.90;;;;;;4949488;28;19997;-82
2022/11/04 15:00:54;;;;;;;;;;;11.10;99.90;;;;;;4941980;28;20033;-82
2022/11/04 15:03:19;;;;;;;;;;;11.10;99.90;;;;;;4938966;28;19919;-82
2022/11/04 15:05:49;;;;;;;;;;;11.00;99.90;;;;;;4931574;29;19959;-82
2022/11/04 15:08:27;;;;;;;;;;;10.80;99.90;;;;;;4938807;28;19933;-83